CYYE

Fort Nelson Airport

Fort Nelson, British Columbia, Canada
METAR CYYE 191518Z 13003G18KT 4SM FU SCT023 BKN260 10/03 A3025 RMK FU3CI4 SLP254
Observed Flight Rules
Aug-19 @ 15:18 UTC (19 minutes ago) Marginal Visual Flight Rules
Wind Visibility Clouds Conditions
130° at 3 knots
 Gusting to 18 knots
4 miles
  • Scattered at 2,300' AGL
  • Broken at 26,000' AGL
  • Smoke
Temperatures Readings
Current 10°C / 50°F
Dewpoint 3°C / 37°F
Humidity 62%
Altimeter 30.25" Hg
Pressure 1025.4 hPa
Elevation 382
METAR CYYE 191518Z 13003G18KT 4SM FU SCT023 BKN260 10/03 A3025 RMK FU3CI4 SLP254
Observed Flight Rules
Aug-19 @ 15:18 UTC
(19 minutes ago)
MVFR
Wind Visibility
130° at 3 knots
 Gusting to 18 knots
4 miles
Clouds
  • Scattered at 2,300' AGL
  • Broken at 26,000' AGL
Conditions
  • Smoke
Temperature Dewpoint
10°C / 50°F 3°C / 37°F
Humidity Altimeter Pressure
62% 30.25" Hg 1025.4 hPa